Foum Tatahouine, Tunisia

1:56 PM CET on June 29, 2017 (GMT +0100)
Remada | | Change Station

Elev 988 ft 32.32 °N, 10.40 °E | Updated 56 minutes ago

Clear
Clear
109 °F
Feels Like 109 °F
N
12
Wind Variable Wind from WSW

Today
High -- | Low -- °F
--% Chance of Precip.
Yesterday
High -- | Low -- °F
Precip. -- in
Pressure 29.89 in
Visibility -9999.0 miles
Clouds
Dew Point 32 °F
Humidity 7%
Rainfall 0.00 in
Snow Depth Not available.
5:12 AM 7:30 PM
Waxing Crescent, 35% visible
METAR DTTD 291200Z 25010KT 180V300 CAVOK 43/00 Q1012 RMK SIROCCO
Pressure 29.89 in
Visibility -9999.0 miles
Clouds
Dew Point 32 °F
Humidity 7%
Rainfall 0.00 in
Snow Depth Not available.
5:12 AM 7:30 PM
Waxing Crescent, 35% visible
METAR DTTD 291200Z 25010KT 180V300 CAVOK 43/00 Q1012 RMK SIROCCO

Get Severe Weather Alerts

Thanks for signing up!

Be on the lookout for a verification email in your inbox.

You'll start receiving the daily forecast at 6 AM.

×

10-Day Weather Forecast

No radar image for this location.
×

Almanac

Astronomy

Jun. 29, 2017 Rise Set
Actual Time
Civil Twilight
Nautical Twilight
Astronomical Twilight
Moon
Length of Visible Light
Length of Day
Tomorrow will be .
, % of the Moon is Illuminated

Today's Extremes

Country Highs Country Lows

Community

WunderPhotos

Category 6

Welcome to Category 6. This is the collective home for Weather Underground's featured writeups by Dr. Jeff Masters (right), Bob Henson (left), Chris Burt, and other regular contributors.

Nearby

Air Quality

  Air Quality AQ Index Pollutant
Not available.

Snow Depth

Station Depth Elevation

Earthquake Activity

City Distance Mag. Time & Date
Minimum magnitude displayed is 2.5.

Coastal Water Temperatures

Place Temperature

Stations

Nearby Weather Stations

Station Location Temp. Windchill Dew Point Humidity Wind Precip. Elev Updated Type